createdAt,value
2018-07-10T00:00:09.928Z,100918.39
2018-07-10T00:03:22.030Z,100908.73
2018-07-10T00:06:26.226Z,100915.11
2018-07-10T00:10:25.808Z,100914.63
2018-07-10T00:12:55.688Z,100911.25
2018-07-10T00:15:25.478Z,100905.90
2018-07-10T00:17:55.327Z,100913.28
2018-07-10T00:20:25.355Z,100903.77
2018-07-10T00:22:55.528Z,100894.92
2018-07-10T00:25:25.357Z,100900.66
2018-07-10T00:27:55.326Z,100906.20
2018-07-10T00:30:25.359Z,100899.17
2018-07-10T00:32:55.183Z,100896.24
2018-07-10T00:35:25.189Z,100895.81
2018-07-10T00:38:11.720Z,100892.70
2018-07-10T00:40:41.639Z,100882.72
2018-07-10T00:43:12.661Z,100882.94
2018-07-10T00:45:42.545Z,100875.70
2018-07-10T00:48:12.497Z,100879.89
2018-07-10T00:50:42.377Z,100879.17
2018-07-10T00:53:12.285Z,100873.53
2018-07-10T00:55:42.263Z,100876.20
2018-07-10T00:58:12.259Z,100868.30
2018-07-10T01:00:42.091Z,100863.63
2018-07-10T01:03:11.990Z,100856.75
2018-07-10T01:05:41.921Z,100857.79
2018-07-10T01:08:11.781Z,100859.88
2018-07-10T01:10:41.959Z,100853.70
2018-07-10T01:13:11.957Z,100849.97
2018-07-10T01:15:41.875Z,100847.41
2018-07-10T01:18:11.823Z,100845.55
2018-07-10T01:20:41.641Z,100849.09
2018-07-10T01:23:11.670Z,100840.67
2018-07-10T01:25:41.602Z,100836.20
2018-07-10T01:28:11.470Z,100831.53
2018-07-10T01:30:41.438Z,100828.91
2018-07-10T01:33:11.338Z,100830.83
2018-07-10T01:35:41.417Z,100835.19
2018-07-10T01:38:11.490Z,100834.20
2018-07-10T01:40:42.127Z,100831.18
2018-07-10T01:43:12.137Z,100830.45
2018-07-10T01:45:41.954Z,100830.98
2018-07-10T01:48:12.000Z,100828.45
2018-07-10T01:50:41.919Z,100828.80
2018-07-10T01:53:12.047Z,100833.36
2018-07-10T01:55:41.971Z,100825.45
2018-07-10T01:58:12.030Z,100824.01
2018-07-10T02:00:45.212Z,100816.58
2018-07-10T02:03:15.106Z,100809.03
2018-07-10T02:05:45.008Z,100814.11
2018-07-10T02:08:14.962Z,100827.00
2018-07-10T02:10:45.187Z,100833.57
2018-07-10T02:13:15.077Z,100830.28
2018-07-10T02:15:44.938Z,100830.80
2018-07-10T02:18:14.859Z,100828.83
2018-07-10T02:20:59.275Z,100824.53
2018-07-10T02:23:37.603Z,100821.38
2018-07-10T02:26:26.226Z,100810.22
2018-07-10T02:28:56.968Z,100808.88
2018-07-10T02:31:28.023Z,100807.14
2018-07-10T02:33:57.924Z,100809.02
2018-07-10T02:36:27.871Z,100799.20
2018-07-10T02:39:00.364Z,100803.42
2018-07-10T02:41:30.399Z,100806.06
2018-07-10T02:44:04.380Z,100810.63
2018-07-10T02:46:37.158Z,100812.02
2018-07-10T02:49:18.704Z,100819.67
2018-07-10T02:51:58.006Z,100818.70
2018-07-10T02:54:30.902Z,100821.62
2018-07-10T02:57:00.861Z,100817.21
2018-07-10T02:59:39.430Z,100814.34
2018-07-10T03:02:27.005Z,100825.63
2018-07-10T03:05:05.616Z,100825.84
2018-07-10T03:07:37.757Z,100821.98
2018-07-10T03:10:07.778Z,100818.73
2018-07-10T03:12:38.052Z,100822.33
2018-07-10T03:15:12.762Z,100827.73
2018-07-10T03:17:42.722Z,100831.64
2018-07-10T03:20:12.579Z,100831.70
2018-07-10T03:22:42.565Z,100827.09
2018-07-10T03:25:12.373Z,100828.78
2018-07-10T03:27:42.343Z,100829.49
2018-07-10T03:30:12.330Z,100828.88
2018-07-10T03:32:42.190Z,100836.02
2018-07-10T03:35:12.001Z,100831.03
2018-07-10T03:37:41.970Z,100825.47
2018-07-10T03:40:12.327Z,100822.34
2018-07-10T03:42:42.336Z,100822.34
2018-07-10T03:45:13.415Z,100824.59
2018-07-10T03:47:44.062Z,100835.14
2018-07-10T03:50:13.916Z,100825.69
2018-07-10T03:52:48.003Z,100836.48
2018-07-10T03:55:19.757Z,100832.72
2018-07-10T03:57:54.375Z,100829.17
2018-07-10T04:00:24.424Z,100817.58
2018-07-10T04:02:54.572Z,100822.31
2018-07-10T04:05:25.122Z,100820.41
2018-07-10T04:07:57.532Z,100820.70
2018-07-10T04:10:32.557Z,100818.23
2018-07-10T04:13:14.484Z,100809.77
2018-07-10T04:15:46.905Z,100817.05
2018-07-10T04:18:20.276Z,100818.62
2018-07-10T04:21:00.054Z,100822.73
2018-07-10T04:23:37.400Z,100825.12
2018-07-10T04:26:23.625Z,100816.70
2018-07-10T04:29:27.436Z,100803.88
2018-07-10T04:32:00.121Z,100795.06
2018-07-10T04:34:33.055Z,100789.67
2018-07-10T04:37:09.724Z,100793.44
2018-07-10T04:39:42.069Z,100790.78
2018-07-10T04:42:30.718Z,100789.04
2018-07-10T04:45:10.562Z,100790.18
2018-07-10T04:47:50.012Z,100792.91
2018-07-10T04:50:27.024Z,100799.30
2018-07-10T04:53:14.733Z,100801.89
2018-07-10T04:55:45.074Z,100802.19
2018-07-10T04:58:21.483Z,100809.84
2018-07-10T05:00:58.456Z,100827.95
2018-07-10T05:03:29.709Z,100836.25
2018-07-10T05:06:03.539Z,100841.37
2018-07-10T05:08:33.467Z,100852.66
2018-07-10T05:11:03.564Z,100855.84
2018-07-10T05:13:33.500Z,100861.08
2018-07-10T05:16:06.609Z,100856.04
2018-07-10T05:18:37.384Z,100851.56
2018-07-10T05:21:13.542Z,100863.20
2018-07-10T05:23:43.834Z,100878.91
2018-07-10T05:26:16.484Z,100875.14
2018-07-10T05:28:51.075Z,100878.54
2018-07-10T05:31:21.344Z,100857.53
2018-07-10T05:33:52.449Z,100862.50
2018-07-10T05:36:24.436Z,100875.80
2018-07-10T05:39:12.185Z,100884.70
2018-07-10T05:41:46.753Z,100874.25
2018-07-10T05:44:23.433Z,100880.54
2018-07-10T05:46:56.893Z,100882.62
2018-07-10T05:49:26.617Z,100882.53
2018-07-10T05:51:58.293Z,100889.94
2018-07-10T05:54:28.738Z,100893.01
2018-07-10T05:56:58.869Z,100895.95
2018-07-10T05:59:29.631Z,100891.24
2018-07-10T06:01:59.039Z,100897.97
2018-07-10T06:04:29.164Z,100885.02
2018-07-10T06:07:06.194Z,100880.27
2018-07-10T06:09:36.842Z,100883.97
2018-07-10T06:12:08.007Z,100900.24
2018-07-10T06:14:38.785Z,100904.86
2018-07-10T06:17:09.850Z,100894.09
2018-07-10T06:19:43.205Z,100885.67
2018-07-10T06:22:13.312Z,100887.80
2018-07-10T06:24:44.142Z,100887.77
2018-07-10T06:27:16.183Z,100893.22
2018-07-10T06:30:17.101Z,100900.50
2018-07-10T06:33:03.996Z,100897.42
2018-07-10T06:35:41.588Z,100896.05
2018-07-10T06:38:16.773Z,100887.00
2018-07-10T06:40:50.429Z,100895.53
2018-07-10T06:43:31.785Z,100901.13
2018-07-10T06:46:02.569Z,100912.56
2018-07-10T06:48:42.335Z,100918.27
2018-07-10T06:51:17.953Z,100917.66
2018-07-10T06:53:52.314Z,100900.98
2018-07-10T06:56:29.660Z,100885.39
2018-07-10T06:59:00.085Z,100896.62
2018-07-10T07:01:29.926Z,100909.80
2018-07-10T07:04:01.786Z,100910.91
2018-07-10T07:06:32.286Z,100919.69
2018-07-10T07:09:02.163Z,100928.14
2018-07-10T07:11:32.129Z,100925.00
2018-07-10T07:14:02.160Z,100924.00
2018-07-10T07:16:32.045Z,100929.44
2018-07-10T07:19:02.445Z,100936.81
2018-07-10T07:21:32.388Z,100928.04
2018-07-10T07:24:03.083Z,100930.86
2018-07-10T07:26:33.056Z,100928.85
2018-07-10T07:29:02.985Z,100926.97
2018-07-10T07:31:32.847Z,100926.74
2018-07-10T07:34:03.618Z,100923.02
2018-07-10T07:36:33.551Z,100919.61
2018-07-10T07:39:05.398Z,100922.83
2018-07-10T07:41:35.450Z,100932.18
2018-07-10T07:44:05.447Z,100924.86
2018-07-10T07:46:35.218Z,100929.69
2018-07-10T07:49:06.152Z,100933.44
2018-07-10T07:51:36.024Z,100941.39
2018-07-10T07:54:06.692Z,100944.32
2018-07-10T07:56:37.205Z,100947.02
2018-07-10T07:59:07.161Z,100947.78
2018-07-10T08:01:37.063Z,100948.23
2018-07-10T08:04:07.711Z,100944.98
2018-07-10T08:06:38.368Z,100938.69
2018-07-10T08:09:09.116Z,100951.25
2018-07-10T08:11:39.123Z,100947.99
2018-07-10T08:14:10.763Z,100950.27
2018-07-10T08:16:40.967Z,100950.27
2018-07-10T08:19:11.513Z,100949.15
2018-07-10T08:21:42.306Z,100954.44
2018-07-10T08:24:12.506Z,100957.30
2018-07-10T08:26:43.870Z,100952.44
2018-07-10T08:29:14.118Z,100946.21
2018-07-10T08:31:48.643Z,100935.97
2018-07-10T08:34:18.759Z,100935.89
2018-07-10T08:36:48.904Z,100943.14
2018-07-10T08:39:20.158Z,100939.70
2018-07-10T08:41:50.858Z,100944.77
2018-07-10T08:44:23.382Z,100940.15
2018-07-10T08:46:56.600Z,100928.09
2018-07-10T08:49:36.680Z,100927.46
2018-07-10T08:52:09.828Z,100929.22
2018-07-10T08:54:39.960Z,100923.17
2018-07-10T08:57:12.138Z,100921.63
2018-07-10T08:59:42.445Z,100929.56
2018-07-10T09:02:13.442Z,100920.33
2018-07-10T09:04:44.679Z,100926.06
2018-07-10T09:07:15.493Z,100921.31
2018-07-10T09:09:45.750Z,100924.06
2018-07-10T09:12:15.775Z,100915.95
2018-07-10T09:14:46.161Z,100906.75
2018-07-10T09:17:16.505Z,100914.03
2018-07-10T09:19:47.267Z,100902.34
2018-07-10T09:22:19.432Z,100901.73
2018-07-10T09:24:56.870Z,100894.36
2018-07-10T09:27:27.153Z,100885.99
2018-07-10T09:29:57.593Z,100877.05
2018-07-10T09:32:33.391Z,100886.30
2018-07-10T09:35:04.008Z,100891.40
2018-07-10T09:37:40.018Z,100885.48
2018-07-10T09:40:18.418Z,100889.03
2018-07-10T09:42:55.983Z,100901.30
2018-07-10T09:45:35.135Z,100899.27
2018-07-10T09:48:06.863Z,100900.07
2018-07-10T09:50:36.804Z,100897.94
2018-07-10T09:53:06.857Z,100890.17
2018-07-10T09:55:36.890Z,100894.27
2018-07-10T09:58:07.800Z,100893.83
2018-07-10T10:00:43.417Z,100893.80
2018-07-10T10:03:14.363Z,100898.20
2018-07-10T10:05:45.395Z,100901.56
2018-07-10T10:08:15.346Z,100895.44
2018-07-10T10:10:45.192Z,100900.66
2018-07-10T10:13:15.240Z,100900.38
2018-07-10T10:15:45.603Z,100909.45
2018-07-10T10:18:15.651Z,100912.92
2018-07-10T10:20:45.636Z,100918.34
2018-07-10T10:23:15.727Z,100922.34
2018-07-10T10:25:53.654Z,100929.45
2018-07-10T10:28:25.872Z,100932.17
2018-07-10T10:30:55.803Z,100936.23
2018-07-10T10:33:25.797Z,100936.79
2018-07-10T10:35:56.068Z,100932.33
2018-07-10T10:38:25.975Z,100935.47
2018-07-10T10:40:58.071Z,100927.03
2018-07-10T10:43:29.020Z,100928.13
2018-07-10T10:45:59.137Z,100926.02
2018-07-10T10:48:29.100Z,100928.00
2018-07-10T10:51:00.438Z,100934.22
2018-07-10T10:53:30.695Z,100934.34
2018-07-10T10:56:00.892Z,100927.88
2018-07-10T10:58:31.138Z,100922.53
2018-07-10T11:01:02.749Z,100920.28
2018-07-10T11:03:32.805Z,100922.63
2018-07-10T11:06:03.879Z,100919.70
2018-07-10T11:08:33.786Z,100917.30
2018-07-10T11:11:04.571Z,100921.67
2018-07-10T11:13:34.539Z,100928.39
2018-07-10T11:16:04.591Z,100917.91
2018-07-10T11:20:00.067Z,100915.91
2018-07-10T11:22:30.314Z,100914.94
2018-07-10T11:25:08.756Z,100911.73
2018-07-10T11:28:15.280Z,100908.81
2018-07-10T11:30:45.278Z,100906.42
2018-07-10T11:33:15.353Z,100901.88
2018-07-10T11:35:45.426Z,100905.58
2018-07-10T11:38:15.484Z,100903.27
2018-07-10T11:40:46.905Z,100900.52
2018-07-10T11:43:16.713Z,100904.47
2018-07-10T11:45:46.688Z,100901.70
2018-07-10T11:48:16.770Z,100909.45
2018-07-10T11:50:46.617Z,100901.58
2018-07-10T11:53:16.566Z,100898.93
2018-07-10T11:55:46.541Z,100897.25
2018-07-10T11:58:16.598Z,100897.56
2018-07-10T12:00:46.629Z,100895.05
2018-07-10T12:03:16.474Z,100898.88
2018-07-10T12:05:46.534Z,100899.14
2018-07-10T12:08:17.429Z,100903.91
2018-07-10T12:10:59.777Z,100903.03
2018-07-10T12:13:30.785Z,100906.97
2018-07-10T12:16:01.726Z,100907.89
2018-07-10T12:18:32.582Z,100905.92
2018-07-10T12:21:03.967Z,100912.72
2018-07-10T12:23:34.068Z,100900.25
2018-07-10T12:26:07.444Z,100904.14
2018-07-10T12:28:37.405Z,100903.84
2018-07-10T12:31:09.089Z,100902.73
2018-07-10T12:33:39.324Z,100904.27
2018-07-10T12:36:09.277Z,100906.31
2018-07-10T12:38:39.299Z,100901.58
2018-07-10T12:41:10.303Z,100898.75
2018-07-10T12:43:40.334Z,100903.66
2018-07-10T12:46:11.646Z,100904.59
2018-07-10T12:48:41.898Z,100907.06
2018-07-10T12:51:13.647Z,100906.47
2018-07-10T12:53:45.154Z,100901.80
2018-07-10T12:56:18.192Z,100894.67
2018-07-10T12:58:48.340Z,100895.48
2018-07-10T13:01:18.714Z,100892.39
2018-07-10T13:03:50.552Z,100888.80
2018-07-10T13:06:20.477Z,100886.41
2018-07-10T13:08:50.407Z,100882.36
2018-07-10T13:11:25.804Z,100871.72
2018-07-10T13:13:56.492Z,100876.34
2018-07-10T13:16:26.557Z,100872.92
2018-07-10T13:18:56.468Z,100876.41
2018-07-10T13:21:27.013Z,100875.09
2018-07-10T13:23:57.062Z,100870.42
2018-07-10T13:26:27.010Z,100874.63
2018-07-10T13:28:57.100Z,100869.64
2018-07-10T13:31:27.202Z,100874.98
2018-07-10T13:33:57.170Z,100864.22
2018-07-10T13:36:27.189Z,100875.92
2018-07-10T13:38:57.369Z,100876.58
2018-07-10T13:41:28.030Z,100876.27
2018-07-10T13:43:58.094Z,100870.11
2018-07-10T13:46:28.066Z,100884.86
2018-07-10T13:48:58.138Z,100886.23
2018-07-10T13:51:28.171Z,100886.34
2018-07-10T13:53:58.134Z,100885.20
2018-07-10T13:56:28.142Z,100875.14
2018-07-10T13:58:58.399Z,100876.19
2018-07-10T14:01:28.426Z,100869.75
2018-07-10T14:03:58.701Z,100869.75
2018-07-10T14:06:29.748Z,100857.05
2018-07-10T14:09:03.651Z,100852.62
2018-07-10T14:11:33.880Z,100800.55
2018-07-10T14:14:04.234Z,100839.46
2018-07-10T14:16:34.776Z,100832.53
2018-07-10T14:19:05.275Z,100837.48
2018-07-10T14:21:35.328Z,100849.05
2018-07-10T14:24:05.412Z,100853.45
2018-07-10T14:26:36.527Z,100854.63
2018-07-10T14:29:06.617Z,100849.69
2018-07-10T14:31:36.622Z,100850.18
2018-07-10T14:34:06.948Z,100834.12
2018-07-10T14:36:37.568Z,100838.45
2018-07-10T14:39:07.618Z,100838.80
2018-07-10T14:41:37.931Z,100830.03
2018-07-10T14:44:08.128Z,100832.86
2018-07-10T14:46:38.692Z,100822.45
2018-07-10T14:49:09.671Z,100827.23
2018-07-10T14:51:45.994Z,100827.22
2018-07-10T14:54:15.877Z,100824.72
2018-07-10T14:56:46.053Z,100827.81
2018-07-10T14:59:21.973Z,100820.91
2018-07-10T15:01:52.032Z,100818.85
2018-07-10T15:04:22.394Z,100813.58
2018-07-10T15:07:01.494Z,100812.06
2018-07-10T15:09:34.909Z,100814.64
2018-07-10T15:12:09.449Z,100802.34
2018-07-10T15:15:04.341Z,100793.98
2018-07-10T15:20:46.473Z,100799.55
2018-07-10T15:23:29.262Z,100785.67
2018-07-10T15:26:15.067Z,100780.98
2018-07-10T15:29:00.491Z,100780.83
2018-07-10T15:31:35.856Z,100788.14
2018-07-10T15:34:10.191Z,100790.81
2018-07-10T15:36:50.518Z,100781.90
2018-07-10T15:39:26.792Z,100790.36
2018-07-10T15:42:08.816Z,100790.19
2018-07-10T15:44:54.340Z,100786.27
2018-07-10T15:47:50.386Z,100781.76
2018-07-10T15:50:38.276Z,100768.27
2018-07-10T15:53:25.812Z,100768.49
2018-07-10T15:56:13.820Z,100767.91
2018-07-10T15:58:58.700Z,100770.80
2018-07-10T16:01:57.668Z,100753.51
2018-07-10T16:04:39.412Z,100760.14
2018-07-10T16:07:23.494Z,100760.23
2018-07-10T16:34:25.499Z,100795.30
2018-07-10T16:36:56.249Z,100804.78
2018-07-10T16:39:30.515Z,100800.36
2018-07-10T16:42:09.115Z,100791.53
2018-07-10T16:44:45.330Z,100798.22
2018-07-10T16:47:44.393Z,100815.01
2018-07-10T16:50:15.117Z,100815.19
2018-07-10T16:52:55.778Z,100829.84
2018-07-10T16:55:27.848Z,100832.33
2018-07-10T16:58:02.828Z,100831.18
2018-07-10T17:00:45.462Z,100821.09
2018-07-10T17:03:22.806Z,100813.98
2018-07-10T17:05:57.434Z,100806.38
2018-07-10T17:08:42.286Z,100810.69
2018-07-10T17:11:24.094Z,100810.05
2018-07-10T17:13:55.761Z,100805.57
2018-07-10T17:16:30.956Z,100805.84
2018-07-10T17:19:03.316Z,100799.47
2018-07-10T17:21:36.007Z,100801.81
2018-07-10T17:24:08.516Z,100803.59
2018-07-10T17:26:40.403Z,100801.42
2018-07-10T17:29:12.997Z,100808.94
2018-07-10T17:31:45.543Z,100803.16
2018-07-10T17:34:17.489Z,100806.36
2018-07-10T17:36:48.810Z,100799.70
2018-07-10T17:39:22.850Z,100803.26
2018-07-10T17:41:54.160Z,100799.77
2018-07-10T17:44:26.831Z,100806.42
2018-07-10T17:46:58.452Z,100811.70
2018-07-10T17:49:30.961Z,100820.36
2018-07-10T17:52:03.210Z,100818.90
2018-07-10T17:54:35.429Z,100822.22
2018-07-10T17:57:08.168Z,100817.48
2018-07-10T17:59:41.489Z,100820.28
2018-07-10T18:02:13.851Z,100817.30
2018-07-10T18:04:46.500Z,100819.56
2018-07-10T18:07:17.858Z,100821.11
2018-07-10T18:09:50.128Z,100818.25
2018-07-10T18:12:20.912Z,100824.52
2018-07-10T18:14:50.995Z,100813.22
2018-07-10T18:17:22.112Z,100805.06
2018-07-10T18:19:52.829Z,100802.59
2018-07-10T18:22:23.309Z,100805.48
2018-07-10T18:24:54.043Z,100804.09
2018-07-10T18:27:24.040Z,100801.01
2018-07-10T18:29:53.911Z,100805.94
2018-07-10T18:32:26.692Z,100801.06
2018-07-10T18:34:58.803Z,100802.08
2018-07-10T18:37:29.615Z,100796.91
2018-07-10T18:40:00.989Z,100788.23
2018-07-10T18:42:33.758Z,100783.09
2018-07-10T18:45:05.597Z,100785.61
2018-07-10T18:47:37.706Z,100781.61
2018-07-10T18:50:08.955Z,100780.52
2018-07-10T18:52:40.671Z,100784.38
2018-07-10T18:55:11.348Z,100783.66
2018-07-10T18:57:57.068Z,100787.52
2018-07-10T19:00:52.460Z,100793.86
2018-07-10T19:03:23.880Z,100799.48
2018-07-10T19:05:58.517Z,100794.15
2018-07-10T19:08:29.933Z,100797.09
2018-07-10T19:11:01.969Z,100800.36
2018-07-10T19:13:32.703Z,100808.41
2018-07-10T19:16:04.182Z,100807.13
2018-07-10T19:18:35.512Z,100806.48
2018-07-10T19:21:37.365Z,100814.21
2018-07-10T19:24:19.601Z,100813.98
2018-07-10T19:26:53.134Z,100821.17
2018-07-10T19:29:38.272Z,100817.87
2018-07-10T19:32:11.959Z,100817.94
2018-07-10T19:34:43.183Z,100819.66
2018-07-10T19:37:15.763Z,100819.20
2018-07-10T19:39:47.803Z,100819.25
2018-07-10T19:42:18.872Z,100827.32
2018-07-10T19:44:50.077Z,100818.86
2018-07-10T19:47:28.387Z,100820.13
2018-07-10T19:50:02.751Z,100820.52
2018-07-10T19:52:44.747Z,100823.09
2018-07-10T19:55:17.150Z,100826.16
2018-07-10T19:59:11.506Z,100785.96
2018-07-10T20:02:06.719Z,100827.50
2018-07-10T20:08:20.296Z,100809.32
2018-07-10T20:10:59.063Z,100813.11
2018-07-10T20:13:48.544Z,100813.92
2018-07-10T20:16:25.123Z,100814.73
2018-07-10T20:19:18.901Z,100810.56
2018-07-10T20:22:11.999Z,100813.44
2018-07-10T20:25:52.959Z,100819.38
2018-07-10T20:28:41.688Z,100823.53
2018-07-10T20:31:20.519Z,100826.80
2018-07-10T20:36:08.468Z,100824.59
2018-07-10T20:38:39.010Z,100833.87
2018-07-10T20:41:10.605Z,100837.78
2018-07-10T20:43:46.810Z,100833.78
2018-07-10T20:46:19.100Z,100830.20
2018-07-10T20:48:58.984Z,100829.27
2018-07-10T20:51:43.494Z,100822.45
2018-07-10T20:54:33.784Z,100818.86
2018-07-10T20:57:28.625Z,100820.30
2018-07-10T21:00:15.871Z,100814.05
2018-07-10T21:03:34.681Z,100817.87
2018-07-10T21:06:25.631Z,100821.11
2018-07-10T21:09:11.796Z,100818.03
2018-07-10T21:11:59.849Z,100812.06
2018-07-10T21:14:43.990Z,100825.76
2018-07-10T21:17:17.186Z,100820.42
2018-07-10T21:20:24.355Z,100823.66
2018-07-10T21:23:15.104Z,100824.58
2018-07-10T21:26:32.383Z,100815.61
2018-07-10T21:30:15.662Z,100821.91
2018-07-10T21:32:59.886Z,100826.55
2018-07-10T21:35:44.164Z,100820.48
2018-07-10T21:38:35.147Z,100817.45
2018-07-10T21:43:20.366Z,100823.19
2018-07-10T21:47:01.037Z,100826.32
2018-07-10T21:49:51.063Z,100824.76
2018-07-10T21:52:21.026Z,100829.58
2018-07-10T21:54:51.407Z,100815.29
2018-07-10T21:57:26.611Z,100816.02
2018-07-10T22:00:00.394Z,100818.42
2018-07-10T22:02:31.018Z,100813.91
2018-07-10T22:05:01.403Z,100814.19
2018-07-10T22:07:32.365Z,100820.63
2018-07-10T22:10:08.276Z,100816.77
2018-07-10T22:12:45.805Z,100815.62
2018-07-10T22:15:16.012Z,100812.18
2018-07-10T22:17:46.679Z,100814.15
2018-07-10T22:20:17.563Z,100811.95
2018-07-10T22:22:48.198Z,100813.33
2018-07-10T22:25:18.307Z,100817.41
2018-07-10T22:27:48.291Z,100822.19
2018-07-10T22:30:23.481Z,100821.88
2018-07-10T22:32:56.107Z,100830.97
2018-07-10T22:35:26.105Z,100832.67
2018-07-10T22:37:56.261Z,100832.99
2018-07-10T22:40:26.313Z,100832.48
2018-07-10T22:42:56.401Z,100830.64
2018-07-10T22:45:27.476Z,100821.92
2018-07-10T22:47:57.482Z,100810.44
2018-07-10T22:50:28.041Z,100807.90
2018-07-10T22:53:00.533Z,100801.42
2018-07-10T22:55:33.471Z,100800.73
2018-07-10T22:58:08.335Z,100799.63
2018-07-10T23:00:39.579Z,100803.25
2018-07-10T23:03:21.344Z,100808.08
2018-07-10T23:05:52.257Z,100806.89
2018-07-10T23:08:30.394Z,100808.34
2018-07-10T23:11:01.903Z,100807.10
2018-07-10T23:13:32.677Z,100808.44
2018-07-10T23:16:02.611Z,100803.80
2018-07-10T23:18:32.478Z,100808.84
2018-07-10T23:21:02.534Z,100807.63
2018-07-10T23:23:32.457Z,100806.44
2018-07-10T23:26:02.470Z,100805.05
2018-07-10T23:28:32.859Z,100801.48
2018-07-10T23:31:04.622Z,100797.98
2018-07-10T23:33:34.639Z,100791.33
2018-07-10T23:36:06.369Z,100788.79
2018-07-10T23:39:10.149Z,100780.63
2018-07-10T23:41:53.796Z,100772.84
2018-07-10T23:44:32.381Z,100769.30
2018-07-10T23:47:14.258Z,100765.43
2018-07-10T23:49:44.172Z,100765.06
2018-07-10T23:53:29.918Z,100766.86
2018-07-10T23:55:59.771Z,100761.58
2018-07-10T23:58:29.640Z,100755.37
